Terminal Aerodrome Forecast
Issued by NWS

Home | Current Version | Previous Version | Text Only | Print | Product List | Glossary Off
Versions: 1 2 3 4 5 6 7 8 9 10 11 12 13

000
FTUS43 KPAH 220520
TAFCGI
TAF
KCGI 220520Z 2206/2306 20005KT P6SM FEW250
      TEMPO 2210/2213 5SM BR
     FM221400 23007KT P6SM SCT250
     FM221900 22011G16KT P6SM SCT050
     FM230100 21008KT P6SM SCT060 BKN250=

USA.gov is the U.S. government's official web portal to all federal, state and local government web resources and services.